Skip to Main Content
SEARCH:
Location Air RH Dwp Precip Type Wind Speed Wind Gust Direction Pavement Temperature Date/Time
Hatem Bridge US 40 E/B 33 83 29 None Calm Calm E 23 - 23 2/27/2017 3:52:00 AM
I-270 at I-370 35 59 22 None Calm Calm SE 32 - 37 2/27/2017 3:50:00 AM
I-270 at MD-109 24 90 22 None Calm 5 mph NE 27 - 30 2/27/2017 3:50:00 AM
I-495 at American Legion Bridge 27 89 24 None Calm Calm NW 31 - 34 2/27/2017 3:50:00 AM
I-68 at MD-219 33 41 12 None 6 mph 12 mph SW 28 - 33 2/27/2017 3:50:00 AM
I-68 at Savage Mt 32 48 14 None Calm 5 mph SW 30 - 30 2/27/2017 3:50:00 AM
I-68 at Sideling Hill 31 63 20 None Calm Calm NW 36 - 36 2/27/2017 3:50:00 AM
I-68 at WV Line 27 71 19 None Calm Calm SW 30 - 33 2/27/2017 3:50:00 AM
I-695 at I-83 25 78 19 None Calm Calm N 28 - 33 2/27/2017 3:50:00 AM
I-70 at Fred-Wash Co. 33 51 17 None 4 mph 8 mph SE 30 - 30 2/27/2017 3:50:00 AM
I-70 at I-695 - - - None Calm Calm N 30 - 34 2/27/2017 3:50:00 AM
I-70 at I-81 33 53 18 None Calm 4 mph SW 34 - 34 2/27/2017 3:50:00 AM
I-70 at MD-27 34 59 22 None Calm 5 mph S 30 - 33 2/27/2017 3:50:00 AM
I-70 at MD-32 24 84 20 None Calm Calm N 28 - 32 2/27/2017 3:50:00 AM
I-83 at MD-137 26 82 21 None Calm Calm NE 32 - 32 2/27/2017 3:50:00 AM
I-895 at I-95 - - - No Data Available - - No Data Available -
I-95 at I-695 NE 29 74 22 None Calm Calm NW 30 - 33 2/27/2017 3:52:00 AM
I-95 at Patuxent River 30 85 26 None Calm 4 mph NE 30 - 34 2/27/2017 3:50:00 AM
I-95 at Tydings Bridge 34 71 26 None Calm 5 mph E 32 - 35 2/27/2017 3:50:00 AM
I-95/495 at I-295 38 58 24 None Calm Calm SE 36 - 43 2/27/2017 3:50:00 AM
I-97 at MD-100 27 79 21 None Calm Calm NW 29 - 33 2/27/2017 3:50:00 AM
I-97 at MD-32 27 79 22 None 7 mph 8 mph N 31 - 34 2/27/2017 3:50:00 AM
MD 20 at MD 21 34 73 27 None Calm 7 mph S 35 - 35 2/27/2017 3:50:00 AM
MD 231 at Patuxent River 31 94 30 None 4 mph 4 mph S 33 - 36 2/27/2017 3:50:00 AM
MD 260 at Cox Rd 37 80 31 None Calm Calm S 39 - 39 2/27/2017 3:50:00 AM
MD-135 at Salt Dome 30 47 12 None 4 mph 8 mph SW 29 - 29 2/27/2017 3:50:00 AM
MD-140 at MD-97 29 71 20 None Calm Calm SW 28 - 28 2/27/2017 3:50:00 AM
MD-200 EB at Bonifant Rd 24 83 20 None Calm Calm N 29 - 29 2/27/2017 3:52:00 AM
MD-200 WB at Muncaster Mill Rd 23 82 18 None Calm Calm N 29 - 29 2/27/2017 3:52:00 AM
MD-213 at Sassafras River 32 72 24 None Calm Calm SE 33 - 33 2/27/2017 3:50:00 AM
MD-24 at Rock St Park 24 90 21 None Calm Calm N 31 - 31 2/27/2017 3:50:00 AM
MD-30 at PA Line 34 56 20 None 5 mph 12 mph SE 35 - 35 2/27/2017 3:50:00 AM
MD-301 at MD-305 31 67 22 None 4 mph 5 mph S 33 - 34 2/27/2017 3:50:00 AM
MD-33 at Knapps Narrows Drawbridge 41 81 35 None Calm 8 mph SE 40 - 40 2/27/2017 3:50:00 AM
MD-344 at MD-224 31 87 28 None Calm Calm E 36 - 36 2/27/2017 3:50:00 AM
MD-4 at Patuxent River 38 95 37 None - - No Data Available 36 - 40 2/27/2017 3:50:00 AM
MD-404 at Choptank River 30 77 23 None Calm Calm NE 33 - 35 2/27/2017 3:50:00 AM
MD-43 at MD-150 29 82 25 None Calm Calm E 31 - 35 2/27/2017 3:50:00 AM
MD-51 at Oldtown Salt Dome 21 82 16 None Calm Calm N 33 - 33 2/27/2017 3:50:00 AM
MD-64 at MD-418 26 81 21 None Calm Calm NE 34 - 35 2/27/2017 3:50:00 AM
US-1 at Baltimore / Harford Co. Line 25 86 21 None Calm Calm NW 30 - 32 2/27/2017 3:50:00 AM
US-1 at Conowingo Dam 29 83 24 None Calm Calm N 36 - 36 2/27/2017 3:50:00 AM
US-13 at US-113 29 86 25 None Calm Calm NE 36 - 37 2/27/2017 3:50:00 AM
US-13 at US-50 - - - No Data Available - - No Data Available -
US-15 at MD-140 25 81 20 None Calm Calm N 28 - 32 2/27/2017 3:50:00 AM
US-301 at MD-5 35 83 31 None Calm Calm SE 34 - 38 2/27/2017 3:50:00 AM
US-301 at Potomac 38 84 34 None 4 mph 7 mph E 34 - 39 2/27/2017 3:50:00 AM
US-301 on HWN Bridge 40 79 34 None 11 mph 12 mph SE 33 - 33 2/27/2017 3:53:00 AM
US-340 at MD-180 21 85 17 None Calm 5 mph N 27 - 30 2/27/2017 3:50:00 AM
US-50 at Choptank 36 88 33 None 4 mph 6 mph SE 35 - 37 2/27/2017 3:50:00 AM
US-50 at I-95 33 76 26 None Calm Calm E 33 - 37 2/27/2017 3:50:00 AM
US-50 at MD-2 35 82 31 None Calm 4 mph S 35 - 35 2/27/2017 3:50:00 AM
US-50 at MD-331 37 73 29 None Calm 4 mph S 36 - 37 2/27/2017 3:50:00 AM
US-50 at OC Drawbridge 36 77 30 None Calm 4 mph S 36 - 36 2/27/2017 3:50:00 AM
US-50 at Table Rock Rd 31 44 11 None Calm 8 mph SE 31 - 31 2/27/2017 3:50:00 AM
US-50 Kent Narrow Bridge 39 84 35 None Calm 6 mph SE 38 - 38 2/27/2017 3:50:00 AM
WPL Pier 31 42 77 35 None Calm 5 mph NE 32 - 32 2/27/2017 3:52:00 AM
Location Air RH Dwp Precip Type Wind Speed Wind Gust Direction Pavement Temperature Date/Time